San Luis Obispo (SBP/KSBP)

Map

Destinations

Information

Location
San Luis Obispo, CA
Local Time
17:16 / 5:16 pm
GMT Time
00:16 / 12:16 am
Gates
Unassigned
No FAA reported delays
METAR KSBP 222356Z 31017G23KT 10SM SCT050 16/08 A3003 RMK AO2 SLP167 60001 T01610083 10189 20150 58005
TAF KSBP 222339Z 2300/2324 31015KT P6SM SCT025 FM230300 32012KT P6SM SCT025 BKN050 FM230500 32008KT P6SM BKN050 FM231700 33008KT P6SM SCT250 FM232100 32015G20KT P6SM BKN250
  • No charts available